createdAt,value
2023-01-29T00:01:42.960Z,97228.00
2023-01-29T00:04:10.669Z,97224.44
2023-01-29T00:06:40.021Z,97214.78
2023-01-29T00:09:07.507Z,97204.09
2023-01-29T00:11:36.040Z,97197.91
2023-01-29T00:14:03.567Z,97205.13
2023-01-29T00:16:31.084Z,97211.34
2023-01-29T00:18:58.671Z,97216.56
2023-01-29T00:21:26.201Z,97214.78
2023-01-29T00:23:56.128Z,97215.38
2023-01-29T00:26:23.842Z,97217.50
2023-01-29T00:28:51.333Z,97223.00
2023-01-29T00:31:20.798Z,97213.81
2023-01-29T00:33:48.927Z,97206.56
2023-01-29T00:36:17.835Z,97207.75
2023-01-29T00:38:46.394Z,97196.16
2023-01-29T00:41:34.463Z,97189.59
2023-01-29T00:44:28.680Z,97192.03
2023-01-29T00:46:56.288Z,97183.28
2023-01-29T00:49:24.216Z,97191.44
2023-01-29T00:52:05.653Z,97192.16
2023-01-29T00:54:33.355Z,97189.13
2023-01-29T00:57:02.245Z,97186.09
2023-01-29T00:59:29.979Z,97177.25
2023-01-29T01:02:11.601Z,97172.13
2023-01-29T01:04:39.107Z,97171.28
2023-01-29T01:07:07.517Z,97178.34
2023-01-29T01:09:53.676Z,97178.03
2023-01-29T01:12:23.182Z,97180.81
2023-01-29T01:14:50.959Z,97180.97
2023-01-29T01:17:18.700Z,97180.22
2023-01-29T01:19:46.196Z,97169.41
2023-01-29T01:22:13.639Z,97174.59
2023-01-29T01:24:41.174Z,97172.97
2023-01-29T01:27:08.887Z,97163.84
2023-01-29T01:29:37.895Z,97172.91
2023-01-29T01:32:06.172Z,97176.94
2023-01-29T01:34:33.752Z,97167.00
2023-01-29T01:37:01.306Z,97158.59
2023-01-29T01:39:28.838Z,97153.25
2023-01-29T01:41:56.439Z,97163.84
2023-01-29T01:45:04.261Z,97168.38
2023-01-29T01:47:36.424Z,97155.44
2023-01-29T01:50:08.800Z,97153.97
2023-01-29T01:52:39.183Z,97153.34
2023-01-29T01:55:07.949Z,97154.03
2023-01-29T01:57:35.957Z,97152.91
2023-01-29T02:00:11.581Z,97148.81
2023-01-29T02:02:59.212Z,97145.34
2023-01-29T02:05:45.757Z,97148.81
2023-01-29T02:08:31.436Z,97159.22
2023-01-29T02:10:59.224Z,97166.63
2023-01-29T02:13:27.593Z,97170.47
2023-01-29T02:15:56.370Z,97165.63
2023-01-29T02:18:23.871Z,97166.56
2023-01-29T02:21:08.455Z,97164.88
2023-01-29T02:24:12.395Z,97165.41
2023-01-29T02:26:56.459Z,97174.22
2023-01-29T02:29:34.534Z,97171.50
2023-01-29T02:32:17.260Z,97174.16
2023-01-29T02:35:10.957Z,97168.88
2023-01-29T02:37:46.507Z,97170.09
2023-01-29T02:40:25.996Z,97168.66
2023-01-29T02:43:03.163Z,97177.78
2023-01-29T02:45:34.960Z,97173.78
2023-01-29T02:48:04.193Z,97184.81
2023-01-29T02:50:38.441Z,97176.78
2023-01-29T02:53:10.353Z,97171.41
2023-01-29T02:55:43.367Z,97171.69
2023-01-29T02:58:14.366Z,97169.19
2023-01-29T03:00:47.654Z,97170.53
2023-01-29T03:03:19.255Z,97179.69
2023-01-29T03:05:54.966Z,97174.47
2023-01-29T03:08:36.948Z,97176.38
2023-01-29T03:11:07.512Z,97170.75
2023-01-29T03:13:41.815Z,97167.06
2023-01-29T03:16:19.404Z,97162.16
2023-01-29T03:18:53.578Z,97157.31
2023-01-29T03:21:43.333Z,97153.09
2023-01-29T03:24:31.680Z,97168.50
2023-01-29T03:27:21.479Z,97177.28
2023-01-29T03:30:08.897Z,97173.78
2023-01-29T03:32:39.288Z,97167.91
2023-01-29T03:35:11.873Z,97175.44
2023-01-29T03:37:45.497Z,97179.75
2023-01-29T03:40:14.817Z,97175.84
2023-01-29T03:42:56.904Z,97187.56
2023-01-29T03:45:33.716Z,97188.06
2023-01-29T03:48:10.399Z,97184.50
2023-01-29T03:50:42.914Z,97194.13
2023-01-29T03:53:18.017Z,97196.75
2023-01-29T03:55:55.253Z,97196.59
2023-01-29T03:58:30.542Z,97207.41
2023-01-29T04:01:03.651Z,97206.97
2023-01-29T04:03:35.978Z,97203.00
2023-01-29T04:06:10.688Z,97196.88
2023-01-29T04:08:46.370Z,97197.13
2023-01-29T04:11:17.410Z,97200.88
2023-01-29T04:13:44.897Z,97199.91
2023-01-29T04:16:18.830Z,97192.16
2023-01-29T04:18:49.164Z,97187.03
2023-01-29T04:21:17.509Z,97194.91
2023-01-29T04:23:45.082Z,97207.66
2023-01-29T04:26:26.526Z,97203.63
2023-01-29T04:29:04.692Z,97212.84
2023-01-29T04:31:39.763Z,97204.94
2023-01-29T04:34:19.173Z,97200.78
2023-01-29T04:36:54.009Z,97201.38
2023-01-29T04:39:27.008Z,97197.31
2023-01-29T04:42:00.802Z,97206.34
2023-01-29T04:44:36.417Z,97210.84
2023-01-29T04:47:12.636Z,97210.94
2023-01-29T04:49:46.720Z,97207.28
2023-01-29T04:52:21.844Z,97209.47
2023-01-29T04:54:58.677Z,97206.50
2023-01-29T04:57:31.132Z,97208.31
2023-01-29T05:00:03.819Z,97198.28
2023-01-29T05:02:35.381Z,97196.53
2023-01-29T05:05:06.905Z,97188.06
2023-01-29T05:07:37.641Z,97183.59
2023-01-29T05:10:06.563Z,97180.75
2023-01-29T05:12:35.376Z,97174.81
2023-01-29T05:15:07.625Z,97176.59
2023-01-29T05:17:35.141Z,97174.09
2023-01-29T05:20:04.422Z,97179.91
2023-01-29T05:22:32.135Z,97181.63
2023-01-29T05:24:59.663Z,97181.00
2023-01-29T05:27:50.850Z,97186.56
2023-01-29T05:30:18.746Z,97175.19
2023-01-29T05:32:46.452Z,97175.91
2023-01-29T05:35:15.370Z,97166.69
2023-01-29T05:37:42.865Z,97177.34
2023-01-29T05:40:11.188Z,97177.50
2023-01-29T05:42:38.664Z,97183.31
2023-01-29T05:45:07.236Z,97192.22
2023-01-29T05:47:34.746Z,97194.19
2023-01-29T05:50:02.261Z,97203.28
2023-01-29T05:52:31.053Z,97197.59
2023-01-29T05:54:58.516Z,97196.91
2023-01-29T05:57:25.989Z,97192.13
2023-01-29T05:59:53.432Z,97186.78
2023-01-29T06:02:21.217Z,97186.25
2023-01-29T06:04:48.676Z,97181.53
2023-01-29T06:07:16.164Z,97168.56
2023-01-29T06:09:44.985Z,97161.78
2023-01-29T06:12:12.917Z,97168.34
2023-01-29T06:14:40.386Z,97156.59
2023-01-29T06:17:07.876Z,97157.09
2023-01-29T06:19:35.331Z,97158.00
2023-01-29T06:22:02.788Z,97151.22
2023-01-29T06:24:30.516Z,97137.66
2023-01-29T06:26:59.362Z,97137.75
2023-01-29T06:29:26.814Z,97146.31
2023-01-29T06:31:54.418Z,97133.22
2023-01-29T06:34:21.953Z,97144.84
2023-01-29T06:36:49.426Z,97141.47
2023-01-29T06:39:16.960Z,97150.56
2023-01-29T06:41:45.321Z,97149.00
2023-01-29T06:44:14.207Z,97157.03
2023-01-29T06:46:41.807Z,97157.72
2023-01-29T06:49:09.239Z,97149.81
2023-01-29T06:51:36.730Z,97167.34
2023-01-29T06:54:06.324Z,97163.19
2023-01-29T06:56:33.792Z,97167.19
2023-01-29T06:59:01.302Z,97166.22
2023-01-29T07:01:36.077Z,97176.91
2023-01-29T07:04:04.509Z,97171.06
2023-01-29T07:06:32.333Z,97177.66
2023-01-29T07:08:59.925Z,97190.47
2023-01-29T07:11:27.399Z,97191.63
2023-01-29T07:13:54.850Z,97206.13
2023-01-29T07:16:23.298Z,97195.50
2023-01-29T07:18:52.127Z,97184.28
2023-01-29T07:21:19.578Z,97193.28
2023-01-29T07:23:47.056Z,97183.75
2023-01-29T07:26:14.526Z,97180.72
2023-01-29T07:28:42.459Z,97177.66
2023-01-29T07:31:14.285Z,97179.97
2023-01-29T07:33:43.451Z,97185.09
2023-01-29T07:36:12.998Z,97203.34
2023-01-29T07:38:40.479Z,97198.34
2023-01-29T07:41:08.110Z,97200.19
2023-01-29T07:43:35.822Z,97199.13
2023-01-29T07:46:04.760Z,97206.00
2023-01-29T07:48:32.298Z,97206.03
2023-01-29T07:50:59.972Z,97199.47
2023-01-29T07:53:29.432Z,97204.34
2023-01-29T07:55:57.267Z,97199.03
2023-01-29T07:58:24.856Z,97198.44
2023-01-29T08:00:52.454Z,97204.38
2023-01-29T08:03:21.152Z,97209.66
2023-01-29T08:05:49.046Z,97213.59
2023-01-29T08:08:16.555Z,97226.84
2023-01-29T08:10:45.374Z,97224.00
2023-01-29T08:13:12.888Z,97227.00
2023-01-29T08:15:43.578Z,97239.44
2023-01-29T08:18:11.030Z,97230.31
2023-01-29T08:20:38.516Z,97232.19
2023-01-29T08:23:07.302Z,97238.38
2023-01-29T08:25:36.727Z,97235.72
2023-01-29T08:28:05.718Z,97219.72
2023-01-29T08:30:34.882Z,97229.22
2023-01-29T08:33:03.900Z,97228.69
2023-01-29T08:35:31.504Z,97236.06
2023-01-29T08:38:00.575Z,97246.75
2023-01-29T08:40:29.294Z,97246.28
2023-01-29T08:43:01.988Z,97249.00
2023-01-29T08:45:32.121Z,97254.44
2023-01-29T08:47:59.567Z,97260.38
2023-01-29T08:50:27.290Z,97260.25
2023-01-29T08:52:58.528Z,97263.38
2023-01-29T08:55:26.073Z,97269.50
2023-01-29T08:57:53.554Z,97283.09
2023-01-29T09:00:21.884Z,97284.00
2023-01-29T09:02:50.636Z,97284.63
2023-01-29T09:05:18.738Z,97281.09
2023-01-29T09:07:46.447Z,97285.84
2023-01-29T09:10:13.914Z,97282.25
2023-01-29T09:12:41.371Z,97271.50
2023-01-29T09:15:10.029Z,97271.00
2023-01-29T09:17:37.509Z,97269.69
2023-01-29T09:20:07.447Z,97259.06
2023-01-29T09:22:35.418Z,97263.31
2023-01-29T09:25:03.485Z,97258.53
2023-01-29T09:27:30.996Z,97255.59
2023-01-29T09:29:58.425Z,97250.59
2023-01-29T09:32:52.030Z,97245.94
2023-01-29T09:35:15.077Z,97250.66
2023-01-29T09:37:42.825Z,97254.63
2023-01-29T09:40:22.522Z,97255.66
2023-01-29T09:42:52.973Z,97250.25
2023-01-29T09:45:24.933Z,97240.78
2023-01-29T09:47:53.425Z,97239.75
2023-01-29T09:50:27.335Z,97223.72
2023-01-29T09:52:58.003Z,97218.19
2023-01-29T09:55:28.384Z,97220.75
2023-01-29T09:57:59.115Z,97212.28
2023-01-29T10:00:32.440Z,97199.22
2023-01-29T10:03:16.527Z,97210.44
2023-01-29T10:05:59.391Z,97212.47
2023-01-29T10:09:02.829Z,97212.78
2023-01-29T10:11:43.884Z,97213.56
2023-01-29T10:14:19.736Z,97214.00
2023-01-29T10:17:03.145Z,97204.47
2023-01-29T10:19:58.185Z,97212.41
2023-01-29T10:22:46.770Z,97206.69
2023-01-29T10:25:17.010Z,97217.56
2023-01-29T10:27:50.965Z,97215.53
2023-01-29T10:30:27.021Z,97220.19
2023-01-29T10:32:56.378Z,97220.88
2023-01-29T10:35:26.163Z,97213.19
2023-01-29T10:37:55.844Z,97217.13
2023-01-29T10:40:25.071Z,97207.78
2023-01-29T10:43:00.707Z,97195.69
2023-01-29T10:45:37.846Z,97191.75
2023-01-29T10:48:21.887Z,97180.03
2023-01-29T10:50:54.649Z,97194.75
2023-01-29T10:53:48.163Z,97178.09
2023-01-29T10:56:29.751Z,97186.38
2023-01-29T10:59:02.116Z,97176.69
2023-01-29T11:01:29.601Z,97167.03
2023-01-29T11:04:00.318Z,97160.97
2023-01-29T11:06:31.555Z,97158.16
2023-01-29T11:09:07.999Z,97164.75
2023-01-29T11:11:39.854Z,97163.84
2023-01-29T11:14:13.023Z,97162.84
2023-01-29T11:16:45.585Z,97154.00
2023-01-29T11:19:14.084Z,97162.66
2023-01-29T11:21:53.570Z,97161.50
2023-01-29T11:24:22.368Z,97174.13
2023-01-29T11:26:52.525Z,97174.00
2023-01-29T11:29:39.981Z,97170.44
2023-01-29T11:32:12.460Z,97168.78
2023-01-29T11:34:58.662Z,97150.69
2023-01-29T11:37:33.950Z,97134.00
2023-01-29T11:40:02.919Z,97129.19
2023-01-29T11:42:33.721Z,97120.38
2023-01-29T11:45:01.305Z,97115.28
2023-01-29T11:47:31.430Z,97108.94
2023-01-29T11:50:02.325Z,97110.53
2023-01-29T11:52:40.731Z,97101.28
2023-01-29T11:55:18.608Z,97096.97
2023-01-29T11:57:51.628Z,97100.44
2023-01-29T12:00:23.538Z,97091.97
2023-01-29T12:02:55.391Z,97085.97
2023-01-29T12:05:25.348Z,97075.28
2023-01-29T12:07:56.423Z,97086.56
2023-01-29T12:10:34.269Z,97084.81
2023-01-29T12:13:19.922Z,97072.81
2023-01-29T12:15:49.447Z,97063.94
2023-01-29T12:18:26.847Z,97062.38
2023-01-29T12:20:58.558Z,97059.31
2023-01-29T12:23:36.215Z,97067.44
2023-01-29T12:26:10.541Z,97071.47
2023-01-29T12:28:49.373Z,97063.91
2023-01-29T12:31:25.109Z,97063.97
2023-01-29T12:33:57.568Z,97060.50
2023-01-29T12:36:29.235Z,97063.50
2023-01-29T12:38:56.725Z,97050.78
2023-01-29T12:41:34.998Z,97053.19
2023-01-29T12:44:07.067Z,97048.16
2023-01-29T12:46:39.865Z,97050.91
2023-01-29T12:49:16.266Z,97049.59
2023-01-29T12:51:54.233Z,97044.09
2023-01-29T12:54:27.443Z,97044.97
2023-01-29T12:57:00.932Z,97033.72
2023-01-29T12:59:32.494Z,97026.16
2023-01-29T13:02:10.863Z,97027.56
2023-01-29T13:04:43.179Z,97026.50
2023-01-29T13:07:15.852Z,97019.03
2023-01-29T13:09:46.636Z,97019.03
2023-01-29T13:12:18.534Z,97019.25
2023-01-29T13:14:50.713Z,97013.66
2023-01-29T13:17:24.584Z,97008.84
2023-01-29T13:19:55.241Z,97014.97
2023-01-29T13:22:26.551Z,97019.31
2023-01-29T13:25:04.168Z,97022.09
2023-01-29T13:27:36.130Z,97008.06
2023-01-29T13:30:04.570Z,97007.84
2023-01-29T13:32:33.718Z,97008.03
2023-01-29T13:35:05.046Z,97009.00
2023-01-29T13:37:34.995Z,96999.31
2023-01-29T13:40:05.007Z,97002.06
2023-01-29T13:42:43.523Z,97011.97
2023-01-29T13:45:21.294Z,96999.81
2023-01-29T13:47:52.000Z,97020.22
2023-01-29T13:50:25.419Z,97032.00
2023-01-29T13:52:58.644Z,97027.81
2023-01-29T13:55:31.288Z,97030.16
2023-01-29T13:58:01.597Z,97043.50
2023-01-29T14:00:56.236Z,97044.16
2023-01-29T14:04:04.663Z,97024.75
2023-01-29T14:06:48.557Z,97011.97
2023-01-29T14:09:51.061Z,97000.84
2023-01-29T14:12:37.328Z,97003.00
2023-01-29T14:15:23.311Z,96995.09
2023-01-29T14:18:01.383Z,96995.28
2023-01-29T14:20:45.158Z,96994.97
2023-01-29T14:23:25.000Z,96994.88
2023-01-29T14:25:52.697Z,96992.13
2023-01-29T14:28:24.885Z,96987.25
2023-01-29T14:30:55.013Z,96989.13
2023-01-29T14:33:28.330Z,96996.34
2023-01-29T14:35:57.838Z,96991.75
2023-01-29T14:38:28.905Z,96983.00
2023-01-29T14:41:15.757Z,96983.16
2023-01-29T14:43:43.287Z,96981.13
2023-01-29T14:46:46.321Z,96989.41
2023-01-29T14:49:13.776Z,96992.31
2023-01-29T14:51:46.509Z,96988.69
2023-01-29T14:54:21.944Z,96982.91
2023-01-29T14:56:59.376Z,96972.13
2023-01-29T14:59:33.970Z,96973.56
2023-01-29T15:02:11.466Z,96977.38
2023-01-29T15:04:44.927Z,96970.44
2023-01-29T15:07:21.919Z,96970.47
2023-01-29T15:09:57.280Z,96963.00
2023-01-29T15:12:33.537Z,96970.03
2023-01-29T15:15:07.958Z,96963.88
2023-01-29T15:17:41.488Z,96964.22
2023-01-29T15:20:29.873Z,96964.94
2023-01-29T15:22:57.839Z,96962.66
2023-01-29T15:25:26.019Z,96954.03
2023-01-29T15:27:55.782Z,96957.28
2023-01-29T15:30:33.187Z,96965.22
2023-01-29T15:33:03.991Z,96958.91
2023-01-29T15:35:36.040Z,96965.78
2023-01-29T15:38:06.551Z,96967.31
2023-01-29T15:40:35.283Z,96964.47
2023-01-29T15:43:02.796Z,96971.03
2023-01-29T15:45:32.103Z,96960.63
2023-01-29T15:48:06.491Z,96957.69
2023-01-29T15:50:37.509Z,96960.78
2023-01-29T15:53:10.266Z,96957.31
2023-01-29T15:55:37.863Z,96956.41
2023-01-29T15:58:05.652Z,96952.19
2023-01-29T16:00:33.276Z,96954.44
2023-01-29T16:03:14.047Z,96954.75
2023-01-29T16:05:42.007Z,96960.75
2023-01-29T16:08:14.570Z,96963.50
2023-01-29T16:10:43.251Z,96954.50
2023-01-29T16:13:19.894Z,96956.03
2023-01-29T16:15:56.783Z,96948.56
2023-01-29T16:18:29.713Z,96947.31
2023-01-29T16:20:59.873Z,96948.63
2023-01-29T16:23:30.489Z,96942.91
2023-01-29T16:26:03.204Z,96943.50
2023-01-29T16:28:31.321Z,96951.50
2023-01-29T16:31:02.872Z,96957.22
2023-01-29T16:33:36.231Z,96948.72
2023-01-29T16:36:05.739Z,96952.09
2023-01-29T16:38:36.595Z,96947.78
2023-01-29T16:41:16.326Z,96942.00
2023-01-29T16:43:54.085Z,96951.91
2023-01-29T16:46:26.279Z,96944.44
2023-01-29T16:48:55.391Z,96953.00
2023-01-29T16:51:26.149Z,96951.25
2023-01-29T16:53:56.778Z,96954.56
2023-01-29T16:56:25.503Z,96957.41
2023-01-29T16:58:55.285Z,96962.13
2023-01-29T17:01:25.365Z,96960.25
2023-01-29T17:04:05.716Z,96953.91
2023-01-29T17:06:33.695Z,96955.81
2023-01-29T17:09:01.819Z,96953.16
2023-01-29T17:11:34.559Z,96949.03
2023-01-29T17:14:02.244Z,96946.47
2023-01-29T17:16:32.385Z,96954.69
2023-01-29T17:19:02.016Z,96959.59
2023-01-29T17:21:30.607Z,96955.91
2023-01-29T17:23:58.087Z,96956.63
2023-01-29T17:26:25.781Z,96957.63
2023-01-29T17:28:54.670Z,96956.03
2023-01-29T17:31:22.267Z,96951.69
2023-01-29T17:33:49.853Z,96956.47
2023-01-29T17:36:19.191Z,96955.72
2023-01-29T17:38:47.835Z,96962.69
2023-01-29T17:41:20.759Z,96970.13
2023-01-29T17:43:48.543Z,96957.56
2023-01-29T17:46:18.273Z,96957.22
2023-01-29T17:48:46.392Z,96953.50
2023-01-29T17:51:16.106Z,96955.13
2023-01-29T17:53:46.954Z,96956.31
2023-01-29T17:56:17.241Z,96955.53
2023-01-29T17:58:45.172Z,96958.69
2023-01-29T18:01:12.628Z,96960.75
2023-01-29T18:03:40.102Z,96966.59
2023-01-29T18:06:08.871Z,96961.53
2023-01-29T18:08:38.942Z,96956.81
2023-01-29T18:11:07.750Z,96943.59
2023-01-29T18:13:36.407Z,96939.63
2023-01-29T18:16:04.002Z,96946.38
2023-01-29T18:18:31.514Z,96939.78
2023-01-29T18:20:58.961Z,96931.19
2023-01-29T18:23:26.429Z,96925.66
2023-01-29T18:25:57.475Z,96929.41
2023-01-29T18:28:26.599Z,96929.56
2023-01-29T18:30:54.240Z,96928.50
2023-01-29T18:33:24.025Z,96920.75
2023-01-29T18:35:51.490Z,96919.47
2023-01-29T18:38:18.979Z,96918.41
2023-01-29T18:40:46.450Z,96923.09
2023-01-29T18:43:14.939Z,96922.03
2023-01-29T18:45:44.200Z,96925.81
2023-01-29T18:48:11.696Z,96925.53
2023-01-29T18:50:39.180Z,96923.84
2023-01-29T18:53:07.618Z,96919.63
2023-01-29T18:55:37.415Z,96928.59
2023-01-29T18:58:28.203Z,96930.88
2023-01-29T19:00:53.754Z,96926.63
2023-01-29T19:03:21.553Z,96922.75
2023-01-29T19:05:49.013Z,96926.13
2023-01-29T19:08:16.518Z,96926.13
2023-01-29T19:10:43.989Z,96927.84
2023-01-29T19:13:11.447Z,96929.91
2023-01-29T19:15:42.964Z,96921.75
2023-01-29T19:18:14.712Z,96919.78
2023-01-29T19:20:42.776Z,96923.63
2023-01-29T19:23:10.458Z,96926.63
2023-01-29T19:25:38.757Z,96926.72
2023-01-29T19:28:07.573Z,96932.16
2023-01-29T19:30:35.106Z,96930.75
2023-01-29T19:33:03.004Z,96937.03
2023-01-29T19:35:32.592Z,96935.31
2023-01-29T19:38:00.396Z,96939.03
2023-01-29T19:40:28.029Z,96925.03
2023-01-29T19:42:56.429Z,96925.53
2023-01-29T19:45:49.145Z,96933.91
2023-01-29T19:48:14.397Z,96936.94
2023-01-29T19:50:43.343Z,96933.91
2023-01-29T19:53:10.824Z,96937.63
2023-01-29T19:55:38.314Z,96933.41
2023-01-29T19:58:05.810Z,96931.19
2023-01-29T20:00:33.315Z,96928.97
2023-01-29T20:03:00.820Z,96937.75
2023-01-29T20:05:28.394Z,96932.03
2023-01-29T20:07:57.288Z,96925.31
2023-01-29T20:10:24.780Z,96927.50
2023-01-29T20:12:52.313Z,96918.66
2023-01-29T20:15:19.800Z,96914.28
2023-01-29T20:17:47.269Z,96911.44
2023-01-29T20:20:16.249Z,96909.75
2023-01-29T20:22:44.557Z,96911.44
2023-01-29T20:25:14.421Z,96909.91
2023-01-29T20:27:42.095Z,96908.91
2023-01-29T20:30:11.023Z,96906.50
2023-01-29T20:32:38.505Z,96903.47
2023-01-29T20:35:06.856Z,96897.72
2023-01-29T20:37:34.322Z,96897.09
2023-01-29T20:40:01.873Z,96899.28
2023-01-29T20:42:30.737Z,96893.16
2023-01-29T20:44:58.193Z,96887.34
2023-01-29T20:47:25.733Z,96885.50
2023-01-29T20:49:53.204Z,96877.41
2023-01-29T20:52:20.674Z,96879.91
2023-01-29T20:54:48.293Z,96876.63
2023-01-29T20:57:16.096Z,96879.41
2023-01-29T20:59:45.095Z,96870.84
2023-01-29T21:02:12.598Z,96863.88
2023-01-29T21:04:40.072Z,96867.75
2023-01-29T21:07:07.523Z,96864.25
2023-01-29T21:09:35.061Z,96860.13
2023-01-29T21:12:05.215Z,96856.75
2023-01-29T21:14:32.875Z,96853.75
2023-01-29T21:17:02.187Z,96851.78
2023-01-29T21:19:30.793Z,96851.19
2023-01-29T21:21:58.816Z,96841.31
2023-01-29T21:24:26.875Z,96838.84
2023-01-29T21:26:54.549Z,96830.81
2023-01-29T21:29:22.047Z,96834.19
2023-01-29T21:31:49.633Z,96828.63
2023-01-29T21:34:18.513Z,96829.97
2023-01-29T21:36:46.733Z,96834.88
2023-01-29T21:39:20.983Z,96842.69
2023-01-29T21:42:08.252Z,96849.22
2023-01-29T21:44:36.391Z,96840.28
2023-01-29T21:47:12.107Z,96850.16
2023-01-29T21:49:45.030Z,96851.53
2023-01-29T21:52:13.898Z,96857.66
2023-01-29T21:54:41.834Z,96851.94
2023-01-29T21:57:14.787Z,96859.34
2023-01-29T21:59:42.718Z,96859.28
2023-01-29T22:02:14.463Z,96861.44
2023-01-29T22:04:42.196Z,96868.03
2023-01-29T22:07:11.882Z,96862.91
2023-01-29T22:09:39.720Z,96854.13
2023-01-29T22:12:08.624Z,96863.81
2023-01-29T22:14:36.117Z,96866.06
2023-01-29T22:17:03.878Z,96857.31
2023-01-29T22:19:31.370Z,96854.41
2023-01-29T22:21:58.819Z,96852.88
2023-01-29T22:24:27.875Z,96854.41
2023-01-29T22:26:55.360Z,96850.53
2023-01-29T22:29:23.029Z,96843.78
2023-01-29T22:31:50.494Z,96848.00
2023-01-29T22:34:17.962Z,96845.91
2023-01-29T22:36:45.426Z,96844.03
2023-01-29T22:39:13.402Z,96842.31
2023-01-29T22:41:42.216Z,96839.00
2023-01-29T22:44:09.850Z,96832.56
2023-01-29T22:46:37.328Z,96834.41
2023-01-29T22:49:04.900Z,96826.75
2023-01-29T22:51:32.440Z,96818.91
2023-01-29T22:54:01.079Z,96808.38
2023-01-29T22:56:29.667Z,96804.88
2023-01-29T22:59:00.016Z,96802.38
2023-01-29T23:01:29.332Z,96789.56
2023-01-29T23:03:57.056Z,96787.09
2023-01-29T23:06:25.235Z,96778.97
2023-01-29T23:08:52.991Z,96767.22
2023-01-29T23:11:23.448Z,96770.59
2023-01-29T23:13:52.687Z,96755.84
2023-01-29T23:16:29.171Z,96765.97
2023-01-29T23:18:57.500Z,96761.59
2023-01-29T23:21:27.108Z,96764.81
2023-01-29T23:23:55.272Z,96758.72
2023-01-29T23:26:40.803Z,96755.22
2023-01-29T23:29:08.329Z,96752.63
2023-01-29T23:31:37.167Z,96741.09
2023-01-29T23:34:04.770Z,96732.88
2023-01-29T23:36:32.237Z,96733.69
2023-01-29T23:38:59.689Z,96721.69
2023-01-29T23:41:27.149Z,96711.75
2023-01-29T23:43:54.643Z,96693.00
2023-01-29T23:46:22.154Z,96684.97
2023-01-29T23:48:50.973Z,96677.50
2023-01-29T23:51:18.447Z,96684.41
2023-01-29T23:53:45.910Z,96680.22
2023-01-29T23:56:13.523Z,96690.47
2023-01-29T23:58:41.041Z,96677.16
